Time;durP1;ratioP1;P1;durP2;ratioP2;P2;SDS_P1;SDS_P2;PMS_P1;PMS_P2;Temp;Humidity;BMP_temperature;BMP_pressure;BME280_temperature;BME280_humidity;BME280_pressure;Samples;Min_cycle;Max_cycle;Signal;HPM_P1;HPM_P2
2021/03/20 00:01:31;;;;;;;11.83;7.57;;;;;;;1.58;59.95;97307.00;5077632;28;20971;-72
2021/03/20 00:03:57;;;;;;;11.30;6.90;;;;;;;1.57;60.14;97301.00;5065544;28;20433;-67
2021/03/20 00:06:27;;;;;;;11.53;7.30;;;;;;;1.75;59.83;97296.47;5056373;28;20449;-68
2021/03/20 00:08:54;;;;;;;16.87;8.17;;;;;;;1.56;60.04;97298.53;5065614;28;20416;-69
2021/03/20 00:11:22;;;;;;;11.10;7.80;;;;;;;1.76;60.12;97294.72;5077265;28;20544;-68
2021/03/20 00:13:49;;;;;;;15.47;7.10;;;;;;;1.58;60.45;97302.66;5042934;28;21012;-67
2021/03/20 00:16:15;;;;;;;11.63;7.80;;;;;;;1.27;61.21;97301.91;5054780;28;20437;-68
2021/03/20 00:18:43;;;;;;;11.77;8.30;;;;;;;1.41;61.07;97305.44;5056303;28;20426;-66
2021/03/20 00:21:09;;;;;;;13.17;8.10;;;;;;;1.14;61.75;97303.56;5043543;28;20858;-68
2021/03/20 00:23:35;;;;;;;11.53;7.23;;;;;;;1.09;62.41;97310.78;5047893;28;20464;-69
2021/03/20 00:26:02;;;;;;;11.97;8.17;;;;;;;1.09;62.08;97305.63;5060795;28;20862;-69
2021/03/20 00:28:29;;;;;;;10.03;7.00;;;;;;;1.26;61.65;97312.34;5059282;28;20861;-69
2021/03/20 00:31:09;;;;;;;11.10;7.70;;;;;;;1.10;62.04;97315.03;5055226;28;20457;-67
2021/03/20 00:33:36;;;;;;;12.40;8.17;;;;;;;1.19;61.88;97304.13;5062522;28;20421;-68
2021/03/20 00:36:02;;;;;;;11.67;7.87;;;;;;;1.19;61.68;97306.72;5055409;28;20449;-66
2021/03/20 00:38:28;;;;;;;13.07;7.47;;;;;;;0.97;62.53;97308.00;5059031;28;20430;-68
2021/03/20 00:40:55;;;;;;;13.10;8.00;;;;;;;1.36;61.65;97306.56;5052502;28;20439;-68
2021/03/20 00:43:21;;;;;;;13.30;8.53;;;;;;;1.13;62.38;97307.09;5048517;28;20181;-66
2021/03/20 00:45:47;;;;;;;11.20;7.70;;;;;;;1.13;62.08;97307.09;5040793;28;20483;-66
2021/03/20 00:48:16;;;;;;;10.20;7.30;;;;;;;1.07;62.50;97308.28;5058712;28;20428;-67
2021/03/20 00:50:42;;;;;;;13.37;8.60;;;;;;;0.98;62.46;97306.22;5039448;28;20627;-67
2021/03/20 00:53:08;;;;;;;11.63;7.80;;;;;;;1.10;62.92;97309.84;5053285;28;20497;-68
2021/03/20 00:55:34;;;;;;;9.70;7.30;;;;;;;0.91;62.88;97309.19;5055729;28;20483;-67
2021/03/20 00:58:00;;;;;;;12.10;7.30;;;;;;;0.85;63.02;97309.53;5060087;28;20423;-69
2021/03/20 01:00:27;;;;;;;11.57;8.30;;;;;;;0.63;63.86;97317.66;5058495;28;20175;-66
2021/03/20 01:02:53;;;;;;;14.23;7.33;;;;;;;0.55;64.04;97301.81;5054948;28;20214;-68
2021/03/20 01:05:20;;;;;;;11.80;8.33;;;;;;;0.35;64.74;97310.66;5069395;28;20494;-68
2021/03/20 01:07:46;;;;;;;12.27;8.20;;;;;;;0.55;64.83;97314.69;5050551;28;20859;-66
2021/03/20 01:10:19;;;;;;;12.37;8.13;;;;;;;0.36;65.52;97313.19;5053588;28;20431;-66
2021/03/20 01:12:45;;;;;;;12.80;7.70;;;;;;;0.63;64.66;97309.94;5069460;28;20501;-67
2021/03/20 01:15:14;;;;;;;12.23;8.00;;;;;;;0.70;64.84;97306.09;5053110;28;20454;-67
2021/03/20 01:17:40;;;;;;;11.80;7.30;;;;;;;0.94;64.16;97302.19;5052282;28;20210;-69
2021/03/20 01:20:07;;;;;;;13.90;8.47;;;;;;;0.86;64.01;97315.53;5052611;28;20417;-67
2021/03/20 01:22:32;;;;;;;13.77;8.23;;;;;;;0.81;64.35;97313.22;5053447;28;20182;-66
2021/03/20 01:24:58;;;;;;;15.40;7.80;;;;;;;0.82;64.26;97311.47;5055558;28;20425;-66
2021/03/20 01:27:23;;;;;;;11.33;7.13;;;;;;;1.01;64.10;97309.47;5054191;28;20613;-65
2021/03/20 01:29:49;;;;;;;13.90;7.90;;;;;;;1.05;63.61;97307.56;5037033;28;20231;-66
2021/03/20 01:32:15;;;;;;;11.53;7.33;;;;;;;1.08;63.41;97304.75;5019162;28;20228;-67
2021/03/20 01:34:40;;;;;;;11.27;7.60;;;;;;;1.36;63.14;97309.16;5066759;28;20199;-68
2021/03/20 01:37:06;;;;;;;11.50;7.60;;;;;;;1.52;62.81;97314.22;5050857;28;20604;-69
2021/03/20 01:39:32;;;;;;;11.50;7.40;;;;;;;1.54;62.19;97314.09;5053062;28;20258;-67
2021/03/20 01:41:57;;;;;;;10.33;7.50;;;;;;;1.34;62.58;97318.72;5052450;28;20175;-68
2021/03/20 01:44:25;;;;;;;13.60;7.50;;;;;;;1.16;63.10;97320.66;5046354;28;20539;-67
2021/03/20 01:46:55;;;;;;;9.67;7.23;;;;;;;1.27;63.05;97312.25;5059562;28;20209;-66
2021/03/20 01:49:28;;;;;;;11.20;7.33;;;;;;;1.39;63.05;97313.28;5042258;28;20425;-68
2021/03/20 01:52:30;;;;;;;13.43;8.07;;;;;;;1.29;62.52;97318.16;5034606;28;20453;-67
2021/03/20 01:55:01;;;;;;;13.67;7.80;;;;;;;0.94;63.67;97322.84;5050862;28;20508;-68
2021/03/20 01:57:29;;;;;;;12.00;8.43;;;;;;;0.90;64.27;97327.31;5055352;28;20496;-67
2021/03/20 01:59:56;;;;;;;11.00;7.60;;;;;;;1.03;64.47;97320.53;5054186;28;20467;-66
2021/03/20 02:02:22;;;;;;;11.30;8.00;;;;;;;1.00;64.38;97330.22;5036948;28;20414;-68
2021/03/20 02:04:48;;;;;;;13.30;8.10;;;;;;;0.94;64.34;97328.00;5036581;28;20432;-66
2021/03/20 02:07:14;;;;;;;14.33;8.73;;;;;;;1.09;64.34;97316.75;5061229;28;20452;-65
2021/03/20 02:09:40;;;;;;;13.70;8.20;;;;;;;1.03;64.40;97327.47;5062984;28;20586;-68
2021/03/20 02:12:30;;;;;;;11.87;8.07;;;;;;;0.99;64.95;97326.81;5044313;28;20467;-65
2021/03/20 02:15:34;;;;;;;11.97;8.40;;;;;;;1.05;64.38;97328.19;5052357;28;20187;-66
2021/03/20 02:18:15;;;;;;;14.60;8.17;;;;;;;1.41;64.00;97331.25;4994748;28;20481;-65
2021/03/20 02:21:08;;;;;;;15.80;8.73;;;;;;;1.33;63.93;97327.41;5017938;28;20810;-67
2021/03/20 02:23:42;;;;;;;12.57;8.57;;;;;;;1.22;64.71;97324.63;5008526;28;20427;-68
2021/03/20 02:26:39;;;;;;;14.93;8.50;;;;;;;1.03;64.96;97320.53;5017507;28;20842;-67
2021/03/20 02:29:33;;;;;;;14.07;7.93;;;;;;;0.98;65.09;97319.97;5009255;28;20493;-67
2021/03/20 02:32:17;;;;;;;16.90;8.70;;;;;;;1.33;64.12;97318.81;5007335;28;20563;-69
2021/03/20 02:35:20;;;;;;;12.80;8.93;;;;;;;1.23;64.62;97319.34;5007784;28;20509;-66
2021/03/20 02:38:13;;;;;;;13.90;8.50;;;;;;;0.90;65.91;97323.00;5008996;28;20485;-68
2021/03/20 02:40:51;;;;;;;16.47;9.30;;;;;;;0.91;66.04;97321.25;4993845;28;20429;-67
2021/03/20 02:43:24;;;;;;;12.07;9.03;;;;;;;1.15;65.29;97320.72;4992913;28;20540;-65
2021/03/20 02:46:27;;;;;;;12.47;9.13;;;;;;;1.36;64.67;97318.63;5009308;28;20429;-67
2021/03/20 02:49:11;;;;;;;13.13;8.53;;;;;;;1.48;64.05;97317.06;5009103;28;20429;-66
2021/03/20 02:51:53;;;;;;;15.20;8.77;;;;;;;1.21;64.93;97312.63;4992478;28;20466;-66
2021/03/20 02:54:27;;;;;;;12.83;9.23;;;;;;;1.71;63.82;97302.72;5069876;28;20454;-67
2021/03/20 02:57:48;;;;;;;12.63;9.17;;;;;;;1.67;63.93;97312.44;5086050;28;20433;-68
2021/03/20 03:00:37;;;;;;;12.23;8.70;;;;;;;1.65;63.76;97313.47;4989722;28;20427;-66
2021/03/20 03:03:03;;;;;;;13.20;9.20;;;;;;;1.89;63.83;97311.09;5012110;28;20446;-69
2021/03/20 03:05:34;;;;;;;14.77;9.53;;;;;;;2.08;62.80;97308.19;5012566;28;20558;-67
2021/03/20 03:08:37;;;;;;;11.50;8.80;;;;;;;1.95;63.01;97297.00;5014080;28;20490;-67
2021/03/20 03:11:09;;;;;;;11.40;8.40;;;;;;;1.91;63.25;97304.09;4999943;28;20815;-66
2021/03/20 03:13:39;;;;;;;13.43;9.83;;;;;;;2.15;62.93;97303.47;5013413;28;20411;-66
2021/03/20 03:16:14;;;;;;;12.03;8.77;;;;;;;1.79;63.71;97299.69;5000476;28;20439;-68
2021/03/20 03:18:48;;;;;;;14.30;10.10;;;;;;;1.69;63.68;97305.41;5020275;28;20433;-66
2021/03/20 03:21:15;;;;;;;13.37;9.43;;;;;;;1.55;64.80;97297.69;5012978;28;20419;-67
2021/03/20 03:23:42;;;;;;;13.70;9.07;;;;;;;1.67;64.20;97304.69;4993912;28;20444;-67
2021/03/20 03:26:22;;;;;;;12.87;8.60;;;;;;;2.00;63.38;97297.50;5008078;28;20446;-68
2021/03/20 03:29:01;;;;;;;13.43;9.73;;;;;;;1.77;64.12;97302.38;5000869;28;21012;-67
2021/03/20 03:31:29;;;;;;;13.90;9.40;;;;;;;1.87;63.91;97300.06;4995584;28;20458;-66
2021/03/20 03:34:00;;;;;;;12.57;10.00;;;;;;;1.63;64.45;97300.66;5034306;28;20429;-66
2021/03/20 03:36:52;;;;;;;11.60;8.60;;;;;;;1.66;64.89;97315.13;5054876;28;20442;-66
2021/03/20 03:39:26;;;;;;;15.27;10.43;;;;;;;1.95;64.04;97325.44;5057231;28;20489;-68
2021/03/20 03:41:51;;;;;;;13.50;9.70;;;;;;;2.09;63.53;97327.94;5056456;28;20496;-67
2021/03/20 03:44:17;;;;;;;12.77;9.50;;;;;;;1.45;65.37;97332.75;5052470;28;20832;-67
2021/03/20 03:46:44;;;;;;;14.90;10.60;;;;;;;1.49;65.97;97329.88;5061830;28;20199;-67
2021/03/20 03:49:13;;;;;;;14.13;10.53;;;;;;;0.95;66.99;97337.38;5054979;28;20175;-67
2021/03/20 03:51:39;;;;;;;13.70;9.60;;;;;;;1.38;66.30;97327.97;5055503;28;20828;-69
2021/03/20 03:54:05;;;;;;;16.77;10.80;;;;;;;1.69;65.61;97335.63;5054233;28;20421;-68
2021/03/20 03:57:12;;;;;;;15.80;11.10;;;;;;;1.61;65.00;97346.41;5070644;28;20204;-66
2021/03/20 03:59:40;;;;;;;17.07;11.07;;;;;;;0.67;68.50;97363.03;5037490;28;20180;-68
2021/03/20 04:02:11;;;;;;;19.70;11.97;;;;;;;0.85;67.86;97352.59;5006909;28;21127;-65
2021/03/20 04:04:44;;;;;;;14.20;10.90;;;;;;;1.11;67.99;97345.09;5029388;28;20423;-69
2021/03/20 04:07:41;;;;;;;18.07;11.10;;;;;;;1.63;66.38;97346.31;5006532;28;20446;-66
2021/03/20 04:10:15;;;;;;;18.47;12.30;;;;;;;1.39;66.55;97339.13;5030227;28;20449;-69
2021/03/20 04:12:53;;;;;;;15.73;11.20;;;;;;;1.18;67.14;97338.63;5014622;28;20477;-66
2021/03/20 04:15:37;;;;;;;18.60;11.00;;;;;;;1.46;66.34;97342.97;5010605;28;20431;-66
2021/03/20 04:18:29;;;;;;;18.93;11.60;;;;;;;1.08;67.26;97356.41;5028824;28;20426;-67
2021/03/20 04:21:14;;;;;;;15.80;10.73;;;;;;;1.15;67.58;97343.97;5014403;28;20414;-68
2021/03/20 04:23:47;;;;;;;22.53;10.40;;;;;;;0.95;67.68;97342.53;5027221;28;20434;-68
2021/03/20 04:26:37;;;;;;;18.00;11.40;;;;;;;0.81;68.93;97333.88;5022253;28;20447;-68
2021/03/20 04:29:16;;;;;;;18.97;10.37;;;;;;;1.52;66.68;97334.03;5031126;28;20446;-68
2021/03/20 04:31:46;;;;;;;14.70;10.70;;;;;;;1.77;66.09;97340.28;5030429;28;20481;-67
2021/03/20 04:34:20;;;;;;;15.27;10.70;;;;;;;1.71;65.11;97333.75;5038655;28;20440;-66
2021/03/20 04:36:59;;;;;;;12.83;9.70;;;;;;;1.67;65.31;97333.09;5050108;28;20445;-69
2021/03/20 04:39:30;;;;;;;15.00;10.40;;;;;;;1.92;64.40;97339.34;5059924;28;20413;-67
2021/03/20 04:41:56;;;;;;;14.63;10.77;;;;;;;1.94;64.57;97342.69;5051024;28;20410;-67
2021/03/20 04:44:21;;;;;;;14.10;10.40;;;;;;;1.87;64.54;97353.47;5051111;28;20418;-67
2021/03/20 04:46:47;;;;;;;16.73;10.67;;;;;;;1.42;65.64;97361.34;5050386;28;20449;-67
2021/03/20 04:49:29;;;;;;;15.30;10.40;;;;;;;0.93;66.96;97371.03;5052491;28;20218;-68
2021/03/20 04:52:02;;;;;;;15.93;10.37;;;;;;;1.49;65.99;97371.22;5016773;28;20293;-67
2021/03/20 04:54:27;;;;;;;14.80;9.70;;;;;;;0.71;67.59;97369.69;5051926;28;20432;-67
2021/03/20 04:56:54;;;;;;;15.40;10.90;;;;;;;1.31;66.63;97370.56;5051592;28;20438;-66
2021/03/20 04:59:41;;;;;;;16.93;10.47;;;;;;;1.16;66.94;97374.88;5052437;28;20187;-68
2021/03/20 05:02:21;;;;;;;15.53;11.13;;;;;;;0.93;67.26;97373.63;5050943;28;20416;-68
2021/03/20 05:04:47;;;;;;;18.70;11.30;;;;;;;0.70;68.37;97374.91;5048395;28;20427;-66
2021/03/20 05:07:14;;;;;;;15.90;11.43;;;;;;;0.73;68.41;97377.31;5034301;28;20482;-68
2021/03/20 05:09:40;;;;;;;16.07;11.63;;;;;;;1.24;67.27;97377.00;5052090;28;20884;-67
2021/03/20 05:12:18;;;;;;;16.37;11.97;;;;;;;1.15;67.74;97368.03;5041014;28;20465;-67
2021/03/20 05:15:03;;;;;;;18.90;10.80;;;;;;;1.15;67.60;97368.03;5050872;28;20187;-69
2021/03/20 05:17:29;;;;;;;20.57;11.80;;;;;;;0.47;69.25;97366.72;5034074;28;20445;-69
2021/03/20 05:19:55;;;;;;;16.03;10.77;;;;;;;0.82;68.35;97370.81;5049727;28;20421;-68
2021/03/20 05:22:29;;;;;;;25.10;11.70;;;;;;;0.81;68.63;97369.16;5051666;28;20494;-67
2021/03/20 05:24:55;;;;;;;19.40;11.80;;;;;;;0.91;67.98;97362.53;5049144;28;20190;-67
2021/03/20 05:27:24;;;;;;;15.50;10.83;;;;;;;0.81;67.85;97369.16;5051400;28;20452;-67
2021/03/20 05:29:50;;;;;;;20.00;11.87;;;;;;;0.79;67.56;97371.81;5052885;28;20419;-67
2021/03/20 05:32:23;;;;;;;14.00;10.33;;;;;;;0.85;67.18;97368.06;5051044;28;20465;-67
2021/03/20 05:34:49;;;;;;;18.13;11.03;;;;;;;1.26;66.80;97369.97;5049410;28;20579;-67
2021/03/20 05:37:25;;;;;;;20.80;12.50;;;;;;;0.81;67.57;97379.47;5050072;28;20538;-67
2021/03/20 05:39:51;;;;;;;14.87;10.47;;;;;;;1.20;66.91;97378.91;5049940;28;20209;-67
2021/03/20 05:42:40;;;;;;;14.87;10.70;;;;;;;1.27;66.32;97391.50;5050644;28;20439;-68
2021/03/20 05:45:30;;;;;;;19.63;11.53;;;;;;;1.49;65.89;97389.28;5032519;28;20528;-66
2021/03/20 05:47:59;;;;;;;16.20;9.50;;;;;;;1.16;66.04;97385.19;5049563;28;20465;-67
2021/03/20 05:50:34;;;;;;;16.03;10.90;;;;;;;1.09;66.62;97393.38;5049285;28;20484;-66
2021/03/20 05:53:27;;;;;;;13.93;10.60;;;;;;;1.22;66.66;97387.41;5049704;28;21015;-68
2021/03/20 05:55:58;;;;;;;14.57;10.20;;;;;;;0.79;68.75;97384.72;5050877;28;20507;-65
2021/03/20 05:58:44;;;;;;;11.60;9.53;;;;;;;0.82;68.20;97400.03;5055110;28;20471;-67
2021/03/20 06:01:43;;;;;;;16.87;10.70;;;;;;;1.02;68.02;97387.75;5062629;28;20418;-67
2021/03/20 06:04:30;;;;;;;16.77;10.93;;;;;;;1.20;67.49;97398.75;5050410;28;20789;-67
2021/03/20 06:07:23;;;;;;;19.40;11.63;;;;;;;1.10;67.21;97395.06;5050388;28;20842;-66
2021/03/20 06:10:27;;;;;;;15.40;10.43;;;;;;;0.89;68.10;97403.09;5050202;28;21047;-68
2021/03/20 06:13:07;;;;;;;16.40;11.10;;;;;;;0.98;68.00;97405.16;4976371;28;20527;-65
2021/03/20 06:15:57;;;;;;;21.37;12.90;;;;;;;1.04;68.23;97407.38;5009068;28;20461;-69
2021/03/20 06:18:34;;;;;;;17.50;11.50;;;;;;;0.50;69.49;97412.16;5018297;28;20492;-65
2021/03/20 06:21:06;;;;;;;16.33;11.17;;;;;;;0.86;67.53;97422.16;5009103;28;20436;-68
2021/03/20 06:24:05;;;;;;;17.97;10.90;;;;;;;0.71;67.57;97420.44;5034023;28;20466;-66
2021/03/20 06:26:36;;;;;;;15.53;10.17;;;;;;;0.66;67.81;97415.53;4985502;28;20444;-65
2021/03/20 06:29:09;;;;;;;14.77;10.67;;;;;;;1.02;67.49;97424.69;5007788;28;20457;-68
2021/03/20 06:31:42;;;;;;;18.93;10.30;;;;;;;1.28;66.17;97424.97;5013221;28;20455;-66
2021/03/20 06:34:31;;;;;;;12.23;9.30;;;;;;;1.16;66.04;97421.34;4976345;28;20431;-68
2021/03/20 06:36:59;;;;;;;16.60;9.80;;;;;;;1.03;67.05;97423.78;5010207;28;20457;-68
2021/03/20 06:39:34;;;;;;;15.73;9.10;;;;;;;1.51;65.33;97425.41;5011581;28;20536;-67
2021/03/20 06:42:16;;;;;;;11.63;8.40;;;;;;;0.86;65.01;97434.25;4980845;28;20664;-67
2021/03/20 06:44:43;;;;;;;10.67;8.10;;;;;;;1.05;64.52;97437.44;5011690;28;20442;-68
2021/03/20 06:47:14;;;;;;;11.83;7.90;;;;;;;1.26;64.31;97452.63;5003887;28;20512;-66
2021/03/20 06:49:42;;;;;;;10.60;8.00;;;;;;;0.60;65.78;97457.97;5036957;28;20493;-67
2021/03/20 06:52:16;;;;;;;12.70;8.07;;;;;;;1.23;64.16;97447.66;5053667;28;20460;-67
2021/03/20 06:54:42;;;;;;;11.40;7.80;;;;;;;0.67;64.36;97455.09;5053259;28;20498;-67
2021/03/20 06:57:10;;;;;;;9.40;7.20;;;;;;;0.73;64.25;97440.09;5053841;28;20471;-67
2021/03/20 06:59:36;;;;;;;9.77;7.27;;;;;;;1.26;64.08;97451.81;5057064;28;20203;-68
2021/03/20 07:02:11;;;;;;;11.10;7.50;;;;;;;0.86;64.54;97449.72;5056454;28;20475;-66
2021/03/20 07:04:40;;;;;;;13.33;8.70;;;;;;;0.92;64.29;97454.53;5049374;28;20677;-67
2021/03/20 07:07:08;;;;;;;9.20;6.83;;;;;;;0.37;65.25;97469.56;5053738;28;20444;-65
2021/03/20 07:09:34;;;;;;;9.17;6.80;;;;;;;0.54;64.19;97468.66;5054260;28;20425;-67
2021/03/20 07:12:08;;;;;;;9.93;7.27;;;;;;;0.96;63.42;97476.69;5053064;28;20546;-68
2021/03/20 07:14:42;;;;;;;9.90;7.60;;;;;;;1.57;62.07;97471.53;5054034;28;20183;-67
2021/03/20 07:17:24;;;;;;;6.63;5.73;;;;;;;0.70;62.54;97466.06;5054495;28;20464;-68
2021/03/20 07:20:04;;;;;;;9.00;6.03;;;;;;;0.32;63.80;97471.53;5054566;28;20425;-67
2021/03/20 07:22:43;;;;;;;10.40;6.63;;;;;;;1.36;61.64;97469.28;5053158;28;20418;-67
2021/03/20 07:25:32;;;;;;;9.80;6.70;;;;;;;1.95;60.02;97465.84;5045330;28;20496;-67
2021/03/20 07:28:19;;;;;;;10.43;6.33;;;;;;;1.29;60.01;97473.13;5053402;28;20461;-68
2021/03/20 07:30:49;;;;;;;7.90;5.80;;;;;;;1.59;58.96;97469.69;5073803;28;20453;-68
2021/03/20 07:33:37;;;;;;;9.50;6.10;;;;;;;1.88;58.69;97463.72;5056457;28;20467;-68
2021/03/20 07:36:17;;;;;;;7.50;5.13;;;;;;;1.99;57.21;97472.50;5053805;28;20453;-68
2021/03/20 07:38:44;;;;;;;6.00;4.90;;;;;;;2.15;56.22;97475.00;5054471;28;20422;-67
2021/03/20 07:41:18;;;;;;;7.53;5.77;;;;;;;2.07;56.57;97473.78;5060939;28;20421;-67
2021/03/20 07:43:59;;;;;;;5.70;4.77;;;;;;;2.40;55.62;97475.22;5049711;28;20429;-68
2021/03/20 07:46:25;;;;;;;9.73;5.07;;;;;;;2.64;54.88;97483.25;5054310;28;20445;-67
2021/03/20 07:49:13;;;;;;;6.00;5.10;;;;;;;2.42;54.17;97475.97;5053010;28;20432;-69
2021/03/20 07:51:47;;;;;;;7.40;5.23;;;;;;;2.07;54.21;97478.97;5073386;28;20457;-67
2021/03/20 07:54:26;;;;;;;7.47;5.60;;;;;;;1.97;55.52;97481.25;5051324;28;20790;-68
2021/03/20 07:56:52;;;;;;;8.60;6.13;;;;;;;2.39;54.56;97478.78;5070970;28;20437;-67
2021/03/20 07:59:25;;;;;;;6.50;5.20;;;;;;;1.78;54.42;97481.50;5058611;28;20425;-69
2021/03/20 08:01:55;;;;;;;6.50;5.67;;;;;;;1.93;55.10;97488.38;5077033;28;20186;-68
2021/03/20 08:04:46;;;;;;;7.37;5.93;;;;;;;2.26;53.89;97499.38;5057709;28;20478;-68
2021/03/20 08:07:36;;;;;;;7.10;5.30;;;;;;;2.59;53.78;97490.44;5049847;28;20505;-68
2021/03/20 08:10:26;;;;;;;5.80;5.00;;;;;;;2.21;52.66;97498.81;5076674;28;20429;-68
2021/03/20 08:12:55;;;;;;;9.87;5.93;;;;;;;2.58;51.69;97519.88;5052858;28;20429;-67
2021/03/20 08:15:32;;;;;;;6.70;5.27;;;;;;;2.20;52.53;97521.25;5053354;28;20418;-68
2021/03/20 08:18:10;;;;;;;8.67;6.30;;;;;;;2.43;51.75;97526.78;5039301;28;20450;-69
2021/03/20 08:20:36;;;;;;;5.63;4.90;;;;;;;2.20;52.22;97531.59;5059293;28;20425;-68
2021/03/20 08:23:35;;;;;;;6.70;4.90;;;;;;;2.10;50.23;97531.31;5060589;28;20429;-68
2021/03/20 08:26:39;;;;;;;4.90;4.20;;;;;;;2.13;50.05;97532.91;5060520;28;20180;-68
2021/03/20 08:29:29;;;;;;;5.77;4.67;;;;;;;2.11;49.96;97522.63;5035708;28;20465;-68
2021/03/20 08:32:19;;;;;;;7.77;4.40;;;;;;;2.66;49.60;97515.03;5053002;28;20465;-68
2021/03/20 08:34:48;;;;;;;3.77;3.43;;;;;;;2.65;46.52;97504.78;5060514;28;20944;-70
2021/03/20 08:37:37;;;;;;;4.33;3.97;;;;;;;2.28;47.49;97513.84;5053254;28;20454;-69
2021/03/20 08:40:15;;;;;;;6.57;4.47;;;;;;;2.44;48.63;97523.28;5052472;28;20482;-67
2021/03/20 08:43:14;;;;;;;5.47;4.43;;;;;;;2.80;47.40;97521.94;5052999;28;20942;-68
2021/03/20 08:46:18;;;;;;;4.50;3.80;;;;;;;2.41;46.81;97526.91;5046222;28;20425;-69
2021/03/20 08:49:21;;;;;;;4.53;3.63;;;;;;;3.00;46.76;97535.41;5049641;28;20413;-68
2021/03/20 08:52:06;;;;;;;4.90;3.90;;;;;;;2.74;44.45;97537.88;5052605;28;20441;-69
2021/03/20 08:55:05;;;;;;;3.97;3.33;;;;;;;2.53;46.45;97537.44;5057369;28;20413;-68
2021/03/20 08:57:32;;;;;;;3.27;2.97;;;;;;;2.65;46.56;97554.78;5050934;28;20469;-67
2021/03/20 08:59:59;;;;;;;3.10;2.80;;;;;;;1.84;43.07;97561.31;5054177;28;20472;-67
2021/03/20 09:02:25;;;;;;;7.33;4.03;;;;;;;1.78;43.70;97559.06;5057584;28;20174;-67
2021/03/20 09:04:52;;;;;;;3.30;3.00;;;;;;;2.37;42.42;97553.06;5051954;28;20584;-68
2021/03/20 09:07:23;;;;;;;2.77;2.57;;;;;;;3.18;42.41;97549.78;5052084;28;20469;-70
2021/03/20 09:09:56;;;;;;;4.23;3.00;;;;;;;1.37;44.56;97553.59;5036384;28;20428;-67
2021/03/20 09:12:29;;;;;;;3.30;2.80;;;;;;;2.39;44.48;97548.63;5053393;28;20560;-71
2021/03/20 09:14:56;;;;;;;6.13;3.50;;;;;;;2.78;43.81;97554.03;5076036;28;20420;-67
2021/03/20 09:17:27;;;;;;;4.50;3.13;;;;;;;2.48;43.00;97555.81;5074732;28;20442;-68
2021/03/20 09:19:55;;;;;;;5.97;3.97;;;;;;;2.18;43.71;97554.13;5052493;28;20425;-68
2021/03/20 09:22:24;;;;;;;5.53;3.50;;;;;;;1.91;44.98;97554.03;5050766;28;20425;-68
2021/03/20 09:25:01;;;;;;;6.20;4.40;;;;;;;1.92;44.67;97548.75;5046345;28;20440;-71
2021/03/20 09:28:05;;;;;;;3.33;3.03;;;;;;;1.58;45.22;97566.22;5061539;28;20484;-68
2021/03/20 09:30:55;;;;;;;5.57;4.40;;;;;;;1.67;46.17;97570.03;5054042;28;20508;-67
2021/03/20 09:33:23;;;;;;;4.10;3.67;;;;;;;1.59;44.88;97562.72;5064526;28;20444;-66
2021/03/20 09:35:53;;;;;;;6.50;3.60;;;;;;;2.00;44.43;97561.22;5055056;28;20445;-67
2021/03/20 09:38:34;;;;;;;4.57;3.70;;;;;;;3.26;42.95;97561.44;5035273;28;20445;-71
2021/03/20 09:41:15;;;;;;;3.80;3.43;;;;;;;3.76;39.50;97557.31;5054005;28;20432;-70
2021/03/20 09:43:54;;;;;;;4.97;4.03;;;;;;;4.49;38.32;97551.63;5052052;28;20425;-69
2021/03/20 09:46:32;;;;;;;4.07;3.47;;;;;;;3.53;41.70;97551.84;5044310;28;20437;-71
2021/03/20 09:48:57;;;;;;;4.73;3.60;;;;;;;3.56;40.38;97550.84;5051985;28;20497;-67
2021/03/20 09:51:48;;;;;;;5.50;3.60;;;;;;;3.12;41.42;97560.53;5049671;28;20524;-68
2021/03/20 09:54:27;;;;;;;3.90;2.80;;;;;;;3.65;39.04;97547.63;5043737;28;20191;-67
2021/03/20 09:57:12;;;;;;;2.77;2.57;;;;;;;3.07;37.74;97540.09;5084661;28;20441;-72
2021/03/20 09:59:38;;;;;;;2.70;2.50;;;;;;;3.37;35.48;97530.47;5064077;28;20593;-71
2021/03/20 10:02:09;;;;;;;2.67;2.47;;;;;;;3.64;36.90;97545.16;5050432;28;20542;-67
2021/03/20 10:04:54;;;;;;;3.40;3.00;;;;;;;4.11;37.33;97542.91;5070815;28;20277;-68
2021/03/20 10:07:30;;;;;;;3.53;2.90;;;;;;;4.49;36.75;97546.44;5053182;28;20861;-69
2021/03/20 10:10:03;;;;;;;7.20;3.67;;;;;;;4.23;35.48;97539.50;5042219;28;20429;-67
2021/03/20 10:12:47;;;;;;;3.43;2.80;;;;;;;4.42;34.33;97536.47;5051324;28;20457;-68
2021/03/20 10:15:14;;;;;;;4.63;2.70;;;;;;;4.85;32.97;97532.66;5043531;28;20422;-68
2021/03/20 10:18:04;;;;;;;4.70;3.10;;;;;;;3.02;33.59;97523.19;5051013;28;20521;-67
2021/03/20 10:20:52;;;;;;;7.53;3.10;;;;;;;3.38;34.58;97526.94;5051285;28;20464;-66
2021/03/20 10:23:26;;;;;;;2.50;2.27;;;;;;;4.09;34.04;97530.06;5051769;28;20468;-68
2021/03/20 10:25:57;;;;;;;6.30;2.63;;;;;;;4.45;33.14;97530.25;5047055;28;20516;-67
2021/03/20 10:28:30;;;;;;;5.73;2.80;;;;;;;4.85;33.86;97526.63;5061033;28;20479;-69
2021/03/20 10:31:01;;;;;;;3.07;2.77;;;;;;;4.46;32.74;97527.53;5049903;28;20468;-66
2021/03/20 10:33:35;;;;;;;3.10;2.50;;;;;;;3.86;34.84;97528.19;5051537;28;20417;-64
2021/03/20 10:36:30;;;;;;;3.67;2.57;;;;;;;3.65;34.64;97515.72;5051108;28;20425;-64
2021/03/20 10:38:56;;;;;;;3.90;2.90;;;;;;;4.72;32.66;97516.28;5051215;28;20445;-68
2021/03/20 10:41:24;;;;;;;3.63;3.20;;;;;;;4.68;33.21;97527.81;5050447;28;20524;-68
2021/03/20 10:43:56;;;;;;;4.90;2.87;;;;;;;5.31;34.29;97528.53;5051142;28;20202;-68
2021/03/20 10:46:37;;;;;;;5.13;3.30;;;;;;;5.49;34.09;97521.16;5050086;28;20438;-66
2021/03/20 10:49:12;;;;;;;3.83;2.80;;;;;;;5.21;33.79;97524.94;5067427;28;20433;-67
2021/03/20 10:51:39;;;;;;;6.63;3.00;;;;;;;4.53;34.08;97525.34;5050092;28;20461;-67
2021/03/20 10:54:21;;;;;;;3.23;2.90;;;;;;;4.80;33.48;97528.72;5050581;28;20431;-68
2021/03/20 10:56:47;;;;;;;3.67;2.90;;;;;;;5.16;32.78;97521.88;5069096;28;20445;-69
2021/03/20 10:59:28;;;;;;;5.53;2.97;;;;;;;5.36;32.04;97521.25;5050409;28;20483;-68
2021/03/20 11:01:54;;;;;;;3.80;2.90;;;;;;;5.10;31.31;97524.88;5051128;28;20923;-68
2021/03/20 11:04:32;;;;;;;3.30;3.00;;;;;;;5.61;33.37;97514.25;5049236;28;20505;-68
2021/03/20 11:07:00;;;;;;;4.37;3.33;;;;;;;5.95;31.76;97510.91;5032096;28;20457;-67
2021/03/20 11:09:32;;;;;;;4.80;3.60;;;;;;;5.06;33.08;97508.69;5070769;28;20483;-66
2021/03/20 11:12:09;;;;;;;3.27;2.97;;;;;;;3.91;34.24;97520.91;5052168;28;20529;-67
2021/03/20 11:14:52;;;;;;;4.90;3.10;;;;;;;3.80;34.03;97525.03;5049749;28;20479;-66
2021/03/20 11:17:21;;;;;;;3.17;2.87;;;;;;;4.11;33.81;97517.81;5050304;28;20429;-68
2021/03/20 11:19:48;;;;;;;6.10;3.00;;;;;;;5.18;34.03;97520.81;5054653;28;20783;-67
2021/03/20 11:22:19;;;;;;;3.47;3.17;;;;;;;4.89;31.92;97522.88;5054805;28;20417;-66
2021/03/20 11:24:56;;;;;;;4.80;2.93;;;;;;;4.97;32.55;97517.97;5053986;28;20774;-67
2021/03/20 11:27:28;;;;;;;4.57;3.20;;;;;;;4.86;33.50;97533.50;5052322;28;20453;-68
2021/03/20 11:29:58;;;;;;;9.73;3.27;;;;;;;5.47;33.05;97527.41;5053949;28;20425;-69
2021/03/20 11:32:26;;;;;;;5.37;4.53;;;;;;;5.49;33.48;97525.53;5089860;28;20980;-69
2021/03/20 11:35:30;;;;;;;4.60;3.17;;;;;;;5.09;33.35;97521.47;5050690;28;20479;-69
2021/03/20 11:38:00;;;;;;;5.60;3.80;;;;;;;5.72;31.88;97516.06;5052681;28;20473;-70
2021/03/20 11:40:30;;;;;;;4.17;3.53;;;;;;;6.21;30.74;97514.16;5053495;28;20426;-67
2021/03/20 11:43:02;;;;;;;3.50;3.20;;;;;;;6.52;30.46;97503.97;5072097;28;20792;-70
2021/03/20 11:45:35;;;;;;;3.50;3.17;;;;;;;5.50;31.87;97511.59;5057757;28;20429;-67
2021/03/20 11:48:14;;;;;;;6.30;3.53;;;;;;;6.81;31.50;97498.25;5036444;28;20446;-70
2021/03/20 11:50:40;;;;;;;3.40;3.00;;;;;;;6.99;30.17;97505.56;5053400;28;20461;-68
2021/03/20 11:53:24;;;;;;;3.80;3.10;;;;;;;6.27;32.42;97508.47;5052778;28;20463;-68
2021/03/20 11:55:51;;;;;;;3.40;3.10;;;;;;;6.27;31.12;97503.28;5060725;28;20513;-67
2021/03/20 11:58:26;;;;;;;3.20;3.00;;;;;;;4.90;32.04;97503.78;5060961;28;21003;-67
2021/03/20 12:00:52;;;;;;;5.17;3.70;;;;;;;6.14;32.47;97495.56;5054441;28;20429;-67
2021/03/20 12:03:20;;;;;;;3.60;3.27;;;;;;;6.55;31.15;97495.91;5053467;28;20449;-69
2021/03/20 12:05:47;;;;;;;3.90;3.60;;;;;;;6.73;30.82;97495.44;5052805;28;20432;-68
2021/03/20 12:08:25;;;;;;;5.03;3.20;;;;;;;5.50;31.56;97496.00;5060157;28;20457;-68
2021/03/20 12:11:07;;;;;;;3.60;3.27;;;;;;;6.73;31.42;97488.44;5055507;28;20526;-69
2021/03/20 12:13:56;;;;;;;4.27;3.40;;;;;;;6.58;31.82;97482.66;5059131;28;20475;-68